sensor_id;sensor_type;location;lat;lon;timestamp;P1;durP1;ratioP1;P2;durP2;ratioP2
35442;SDS011;21561;55.654;37.592;2022-07-11T00:01:47;23.15;;;9.48;;
35442;SDS011;21561;55.654;37.592;2022-07-11T00:04:15;15.13;;;7.45;;
35442;SDS011;21561;55.654;37.592;2022-07-11T00:06:42;19.85;;;6.80;;
35442;SDS011;21561;55.654;37.592;2022-07-11T00:09:09;18.70;;;5.63;;
35442;SDS011;21561;55.654;37.592;2022-07-11T00:11:36;14.25;;;5.75;;
35442;SDS011;21561;55.654;37.592;2022-07-11T00:14:03;16.42;;;6.32;;
35442;SDS011;21561;55.654;37.592;2022-07-11T00:16:30;17.92;;;6.50;;
35442;SDS011;21561;55.654;37.592;2022-07-11T00:18:57;14.15;;;6.40;;
35442;SDS011;21561;55.654;37.592;2022-07-11T00:21:23;13.80;;;5.95;;
35442;SDS011;21561;55.654;37.592;2022-07-11T00:23:50;14.85;;;6.18;;
35442;SDS011;21561;55.654;37.592;2022-07-11T00:26:17;13.60;;;5.88;;
35442;SDS011;21561;55.654;37.592;2022-07-11T00:28:44;18.38;;;6.07;;
35442;SDS011;21561;55.654;37.592;2022-07-11T00:31:11;14.45;;;5.93;;
35442;SDS011;21561;55.654;37.592;2022-07-11T00:33:38;15.25;;;6.45;;
35442;SDS011;21561;55.654;37.592;2022-07-11T00:36:06;15.90;;;5.90;;
35442;SDS011;21561;55.654;37.592;2022-07-11T00:38:33;17.15;;;6.20;;
35442;SDS011;21561;55.654;37.592;2022-07-11T00:41:00;18.13;;;6.22;;
35442;SDS011;21561;55.654;37.592;2022-07-11T00:43:33;13.02;;;5.75;;
35442;SDS011;21561;55.654;37.592;2022-07-11T00:46:05;13.90;;;6.03;;
35442;SDS011;21561;55.654;37.592;2022-07-11T00:48:34;15.63;;;6.38;;
35442;SDS011;21561;55.654;37.592;2022-07-11T00:51:02;16.17;;;6.53;;
35442;SDS011;21561;55.654;37.592;2022-07-11T00:53:31;16.60;;;6.35;;
35442;SDS011;21561;55.654;37.592;2022-07-11T00:55:59;18.75;;;6.63;;
35442;SDS011;21561;55.654;37.592;2022-07-11T00:58:26;14.68;;;6.20;;
35442;SDS011;21561;55.654;37.592;2022-07-11T01:00:53;15.57;;;6.35;;
35442;SDS011;21561;55.654;37.592;2022-07-11T01:03:23;16.95;;;7.03;;
35442;SDS011;21561;55.654;37.592;2022-07-11T01:05:50;17.13;;;7.05;;
35442;SDS011;21561;55.654;37.592;2022-07-11T01:08:17;18.42;;;7.60;;
35442;SDS011;21561;55.654;37.592;2022-07-11T01:10:44;17.40;;;7.63;;
35442;SDS011;21561;55.654;37.592;2022-07-11T01:13:11;17.38;;;7.85;;
35442;SDS011;21561;55.654;37.592;2022-07-11T01:15:38;16.50;;;7.72;;
35442;SDS011;21561;55.654;37.592;2022-07-11T01:18:05;16.15;;;7.65;;
35442;SDS011;21561;55.654;37.592;2022-07-11T01:20:32;17.80;;;8.07;;
35442;SDS011;21561;55.654;37.592;2022-07-11T01:23:05;18.00;;;7.60;;
35442;SDS011;21561;55.654;37.592;2022-07-11T01:25:33;18.95;;;7.78;;
35442;SDS011;21561;55.654;37.592;2022-07-11T01:28:03;18.15;;;8.68;;
35442;SDS011;21561;55.654;37.592;2022-07-11T01:30:31;17.48;;;7.57;;
35442;SDS011;21561;55.654;37.592;2022-07-11T01:32:59;17.70;;;7.53;;
35442;SDS011;21561;55.654;37.592;2022-07-11T01:35:27;20.27;;;7.53;;
35442;SDS011;21561;55.654;37.592;2022-07-11T01:37:55;20.77;;;6.95;;
35442;SDS011;21561;55.654;37.592;2022-07-11T01:40:28;16.08;;;7.25;;
35442;SDS011;21561;55.654;37.592;2022-07-11T01:42:55;17.25;;;7.30;;
35442;SDS011;21561;55.654;37.592;2022-07-11T01:45:22;16.88;;;7.15;;
35442;SDS011;21561;55.654;37.592;2022-07-11T01:47:48;14.73;;;6.57;;
35442;SDS011;21561;55.654;37.592;2022-07-11T01:50:16;13.75;;;6.30;;
35442;SDS011;21561;55.654;37.592;2022-07-11T01:52:42;14.57;;;6.55;;
35442;SDS011;21561;55.654;37.592;2022-07-11T01:55:10;22.17;;;6.45;;
35442;SDS011;21561;55.654;37.592;2022-07-11T01:57:39;14.15;;;6.43;;
35442;SDS011;21561;55.654;37.592;2022-07-11T02:00:06;14.82;;;6.43;;
35442;SDS011;21561;55.654;37.592;2022-07-11T02:02:37;16.33;;;7.10;;
35442;SDS011;21561;55.654;37.592;2022-07-11T02:05:04;15.65;;;6.63;;
35442;SDS011;21561;55.654;37.592;2022-07-11T02:07:31;15.88;;;7.20;;
35442;SDS011;21561;55.654;37.592;2022-07-11T02:10:17;15.13;;;6.07;;
35442;SDS011;21561;55.654;37.592;2022-07-11T02:12:44;15.73;;;6.50;;
35442;SDS011;21561;55.654;37.592;2022-07-11T02:15:11;15.27;;;7.22;;
35442;SDS011;21561;55.654;37.592;2022-07-11T02:17:38;17.85;;;6.68;;
35442;SDS011;21561;55.654;37.592;2022-07-11T02:20:05;16.42;;;6.68;;
35442;SDS011;21561;55.654;37.592;2022-07-11T02:22:33;19.50;;;6.72;;
35442;SDS011;21561;55.654;37.592;2022-07-11T02:25:00;15.55;;;6.55;;
35442;SDS011;21561;55.654;37.592;2022-07-11T02:27:28;14.63;;;6.47;;
35442;SDS011;21561;55.654;37.592;2022-07-11T02:29:55;16.13;;;6.78;;
35442;SDS011;21561;55.654;37.592;2022-07-11T02:32:22;15.38;;;6.13;;
35442;SDS011;21561;55.654;37.592;2022-07-11T02:34:49;16.20;;;6.22;;
35442;SDS011;21561;55.654;37.592;2022-07-11T02:37:15;18.40;;;6.32;;
35442;SDS011;21561;55.654;37.592;2022-07-11T02:39:42;15.68;;;6.35;;
35442;SDS011;21561;55.654;37.592;2022-07-11T02:42:10;14.07;;;5.85;;
35442;SDS011;21561;55.654;37.592;2022-07-11T02:44:37;15.68;;;6.38;;
35442;SDS011;21561;55.654;37.592;2022-07-11T02:47:04;14.15;;;6.00;;
35442;SDS011;21561;55.654;37.592;2022-07-11T02:49:31;17.45;;;6.20;;
35442;SDS011;21561;55.654;37.592;2022-07-11T02:51:59;15.60;;;5.65;;
35442;SDS011;21561;55.654;37.592;2022-07-11T02:54:26;17.88;;;6.38;;
35442;SDS011;21561;55.654;37.592;2022-07-11T02:56:52;15.02;;;6.30;;
35442;SDS011;21561;55.654;37.592;2022-07-11T02:59:19;14.75;;;5.88;;
35442;SDS011;21561;55.654;37.592;2022-07-11T03:01:47;13.15;;;6.10;;
35442;SDS011;21561;55.654;37.592;2022-07-11T03:04:15;17.10;;;6.45;;
35442;SDS011;21561;55.654;37.592;2022-07-11T03:06:42;15.88;;;6.00;;
35442;SDS011;21561;55.654;37.592;2022-07-11T03:09:09;13.43;;;6.10;;
35442;SDS011;21561;55.654;37.592;2022-07-11T03:11:36;13.00;;;5.82;;
35442;SDS011;21561;55.654;37.592;2022-07-11T03:14:03;16.70;;;6.00;;
35442;SDS011;21561;55.654;37.592;2022-07-11T03:16:30;13.07;;;6.03;;
35442;SDS011;21561;55.654;37.592;2022-07-11T03:18:57;15.00;;;5.50;;
35442;SDS011;21561;55.654;37.592;2022-07-11T03:21:24;16.65;;;5.68;;
35442;SDS011;21561;55.654;37.592;2022-07-11T03:23:51;11.75;;;5.10;;
35442;SDS011;21561;55.654;37.592;2022-07-11T03:26:18;15.07;;;6.30;;
35442;SDS011;21561;55.654;37.592;2022-07-11T03:28:45;14.40;;;5.85;;
35442;SDS011;21561;55.654;37.592;2022-07-11T03:31:12;15.57;;;6.18;;
35442;SDS011;21561;55.654;37.592;2022-07-11T03:33:39;15.43;;;6.25;;
35442;SDS011;21561;55.654;37.592;2022-07-11T03:36:07;12.85;;;5.57;;
35442;SDS011;21561;55.654;37.592;2022-07-11T03:38:34;14.98;;;5.70;;
35442;SDS011;21561;55.654;37.592;2022-07-11T03:41:00;16.92;;;6.00;;
35442;SDS011;21561;55.654;37.592;2022-07-11T03:43:27;14.77;;;5.75;;
35442;SDS011;21561;55.654;37.592;2022-07-11T03:45:55;16.77;;;6.30;;
35442;SDS011;21561;55.654;37.592;2022-07-11T03:48:22;13.85;;;5.18;;
35442;SDS011;21561;55.654;37.592;2022-07-11T03:50:49;15.90;;;5.43;;
35442;SDS011;21561;55.654;37.592;2022-07-11T03:53:17;13.80;;;5.57;;
35442;SDS011;21561;55.654;37.592;2022-07-11T03:55:44;14.35;;;5.85;;
35442;SDS011;21561;55.654;37.592;2022-07-11T03:58:11;13.95;;;6.05;;
35442;SDS011;21561;55.654;37.592;2022-07-11T04:00:38;14.98;;;5.85;;
35442;SDS011;21561;55.654;37.592;2022-07-11T04:03:05;13.70;;;6.18;;
35442;SDS011;21561;55.654;37.592;2022-07-11T04:05:32;14.90;;;6.13;;
35442;SDS011;21561;55.654;37.592;2022-07-11T04:07:59;18.23;;;5.82;;
35442;SDS011;21561;55.654;37.592;2022-07-11T04:10:26;15.43;;;6.03;;
35442;SDS011;21561;55.654;37.592;2022-07-11T04:12:52;17.30;;;6.13;;
35442;SDS011;21561;55.654;37.592;2022-07-11T04:15:19;15.43;;;6.10;;
35442;SDS011;21561;55.654;37.592;2022-07-11T04:17:46;15.48;;;5.90;;
35442;SDS011;21561;55.654;37.592;2022-07-11T04:20:13;13.80;;;5.70;;
35442;SDS011;21561;55.654;37.592;2022-07-11T04:22:40;15.38;;;5.68;;
35442;SDS011;21561;55.654;37.592;2022-07-11T04:25:07;12.93;;;5.75;;
35442;SDS011;21561;55.654;37.592;2022-07-11T04:27:34;17.48;;;5.50;;
35442;SDS011;21561;55.654;37.592;2022-07-11T04:30:06;15.30;;;5.40;;
35442;SDS011;21561;55.654;37.592;2022-07-11T04:32:33;18.55;;;6.00;;
35442;SDS011;21561;55.654;37.592;2022-07-11T04:35:02;15.82;;;6.07;;
35442;SDS011;21561;55.654;37.592;2022-07-11T04:37:30;16.10;;;6.00;;
35442;SDS011;21561;55.654;37.592;2022-07-11T04:39:57;15.88;;;5.88;;
35442;SDS011;21561;55.654;37.592;2022-07-11T04:42:24;14.32;;;6.22;;
35442;SDS011;21561;55.654;37.592;2022-07-11T04:44:50;15.05;;;5.68;;
35442;SDS011;21561;55.654;37.592;2022-07-11T04:47:17;12.68;;;5.75;;
35442;SDS011;21561;55.654;37.592;2022-07-11T04:49:45;13.13;;;5.47;;
35442;SDS011;21561;55.654;37.592;2022-07-11T04:52:13;18.25;;;5.60;;
35442;SDS011;21561;55.654;37.592;2022-07-11T04:54:40;14.98;;;5.75;;
35442;SDS011;21561;55.654;37.592;2022-07-11T04:57:07;17.70;;;6.55;;
35442;SDS011;21561;55.654;37.592;2022-07-11T04:59:34;16.30;;;5.65;;
35442;SDS011;21561;55.654;37.592;2022-07-11T05:02:02;14.80;;;5.75;;
35442;SDS011;21561;55.654;37.592;2022-07-11T05:04:29;15.32;;;6.45;;
35442;SDS011;21561;55.654;37.592;2022-07-11T05:06:56;16.13;;;5.80;;
35442;SDS011;21561;55.654;37.592;2022-07-11T05:09:23;14.55;;;5.80;;
35442;SDS011;21561;55.654;37.592;2022-07-11T05:11:50;17.10;;;5.80;;
35442;SDS011;21561;55.654;37.592;2022-07-11T05:14:17;16.05;;;5.72;;
35442;SDS011;21561;55.654;37.592;2022-07-11T05:16:44;16.67;;;5.80;;
35442;SDS011;21561;55.654;37.592;2022-07-11T05:19:11;14.57;;;5.05;;
35442;SDS011;21561;55.654;37.592;2022-07-11T05:21:38;15.43;;;5.63;;
35442;SDS011;21561;55.654;37.592;2022-07-11T05:24:05;18.65;;;5.95;;
35442;SDS011;21561;55.654;37.592;2022-07-11T05:26:32;14.98;;;5.78;;
35442;SDS011;21561;55.654;37.592;2022-07-11T05:28:59;11.05;;;5.10;;
35442;SDS011;21561;55.654;37.592;2022-07-11T05:31:26;15.48;;;5.80;;
35442;SDS011;21561;55.654;37.592;2022-07-11T05:33:54;16.38;;;5.85;;
35442;SDS011;21561;55.654;37.592;2022-07-11T05:36:21;12.48;;;5.72;;
35442;SDS011;21561;55.654;37.592;2022-07-11T05:38:47;17.95;;;5.68;;
35442;SDS011;21561;55.654;37.592;2022-07-11T05:41:14;14.98;;;5.72;;
35442;SDS011;21561;55.654;37.592;2022-07-11T05:43:41;15.38;;;5.90;;
35442;SDS011;21561;55.654;37.592;2022-07-11T05:46:09;13.00;;;5.43;;
35442;SDS011;21561;55.654;37.592;2022-07-11T05:48:35;17.38;;;6.50;;
35442;SDS011;21561;55.654;37.592;2022-07-11T05:51:02;17.35;;;6.00;;
35442;SDS011;21561;55.654;37.592;2022-07-11T05:53:29;13.63;;;5.50;;
35442;SDS011;21561;55.654;37.592;2022-07-11T05:55:56;15.50;;;5.32;;
35442;SDS011;21561;55.654;37.592;2022-07-11T05:58:23;13.63;;;5.40;;
35442;SDS011;21561;55.654;37.592;2022-07-11T06:00:50;16.38;;;5.45;;
35442;SDS011;21561;55.654;37.592;2022-07-11T06:03:17;15.60;;;5.72;;
35442;SDS011;21561;55.654;37.592;2022-07-11T06:05:44;17.25;;;5.80;;
35442;SDS011;21561;55.654;37.592;2022-07-11T06:08:11;17.38;;;5.60;;
35442;SDS011;21561;55.654;37.592;2022-07-11T06:10:56;22.48;;;5.80;;
35442;SDS011;21561;55.654;37.592;2022-07-11T06:13:23;13.77;;;5.63;;
35442;SDS011;21561;55.654;37.592;2022-07-11T06:15:50;19.13;;;6.30;;
35442;SDS011;21561;55.654;37.592;2022-07-11T06:18:17;17.88;;;5.95;;
35442;SDS011;21561;55.654;37.592;2022-07-11T06:20:44;11.32;;;5.55;;
35442;SDS011;21561;55.654;37.592;2022-07-11T06:23:12;15.55;;;5.80;;
35442;SDS011;21561;55.654;37.592;2022-07-11T06:25:39;15.25;;;5.75;;
35442;SDS011;21561;55.654;37.592;2022-07-11T06:28:06;15.38;;;5.78;;
35442;SDS011;21561;55.654;37.592;2022-07-11T06:30:33;16.42;;;6.18;;
35442;SDS011;21561;55.654;37.592;2022-07-11T06:33:01;20.55;;;6.32;;
35442;SDS011;21561;55.654;37.592;2022-07-11T06:35:28;16.23;;;5.55;;
35442;SDS011;21561;55.654;37.592;2022-07-11T06:37:55;17.92;;;6.13;;
35442;SDS011;21561;55.654;37.592;2022-07-11T06:40:23;20.27;;;6.05;;
35442;SDS011;21561;55.654;37.592;2022-07-11T06:42:50;18.98;;;6.15;;
35442;SDS011;21561;55.654;37.592;2022-07-11T06:45:16;15.73;;;5.88;;
35442;SDS011;21561;55.654;37.592;2022-07-11T06:47:44;16.55;;;5.65;;
35442;SDS011;21561;55.654;37.592;2022-07-11T06:50:11;23.02;;;6.03;;
35442;SDS011;21561;55.654;37.592;2022-07-11T06:52:39;15.55;;;5.55;;
35442;SDS011;21561;55.654;37.592;2022-07-11T06:55:06;15.88;;;5.32;;
35442;SDS011;21561;55.654;37.592;2022-07-11T06:57:33;16.67;;;5.38;;
35442;SDS011;21561;55.654;37.592;2022-07-11T07:00:01;17.30;;;5.63;;
35442;SDS011;21561;55.654;37.592;2022-07-11T07:02:29;19.13;;;5.45;;
35442;SDS011;21561;55.654;37.592;2022-07-11T07:04:57;16.35;;;5.20;;
35442;SDS011;21561;55.654;37.592;2022-07-11T07:07:25;15.48;;;5.32;;
35442;SDS011;21561;55.654;37.592;2022-07-11T07:09:52;15.32;;;5.43;;
35442;SDS011;21561;55.654;37.592;2022-07-11T07:12:20;17.02;;;5.65;;
35442;SDS011;21561;55.654;37.592;2022-07-11T07:14:48;17.15;;;5.57;;
35442;SDS011;21561;55.654;37.592;2022-07-11T07:20:10;18.15;;;5.63;;
35442;SDS011;21561;55.654;37.592;2022-07-11T07:22:39;16.10;;;5.63;;
35442;SDS011;21561;55.654;37.592;2022-07-11T07:25:06;20.30;;;6.10;;
35442;SDS011;21561;55.654;37.592;2022-07-11T07:27:35;17.55;;;5.43;;
35442;SDS011;21561;55.654;37.592;2022-07-11T07:30:04;17.83;;;5.80;;
35442;SDS011;21561;55.654;37.592;2022-07-11T07:32:32;14.27;;;5.50;;
35442;SDS011;21561;55.654;37.592;2022-07-11T07:34:59;19.13;;;6.28;;
35442;SDS011;21561;55.654;37.592;2022-07-11T07:37:28;15.13;;;4.97;;
35442;SDS011;21561;55.654;37.592;2022-07-11T07:39:55;18.50;;;5.40;;
35442;SDS011;21561;55.654;37.592;2022-07-11T07:42:22;15.10;;;5.40;;
35442;SDS011;21561;55.654;37.592;2022-07-11T07:44:48;19.83;;;5.88;;
35442;SDS011;21561;55.654;37.592;2022-07-11T07:47:16;13.55;;;5.30;;
35442;SDS011;21561;55.654;37.592;2022-07-11T07:49:43;16.20;;;5.70;;
35442;SDS011;21561;55.654;37.592;2022-07-11T07:52:10;13.63;;;5.35;;
35442;SDS011;21561;55.654;37.592;2022-07-11T07:54:37;13.05;;;5.43;;
35442;SDS011;21561;55.654;37.592;2022-07-11T07:57:07;16.77;;;5.70;;
35442;SDS011;21561;55.654;37.592;2022-07-11T07:59:34;15.35;;;5.75;;
35442;SDS011;21561;55.654;37.592;2022-07-11T08:02:01;15.20;;;5.93;;
35442;SDS011;21561;55.654;37.592;2022-07-11T08:04:28;16.50;;;6.00;;
35442;SDS011;21561;55.654;37.592;2022-07-11T08:06:56;17.40;;;6.25;;
35442;SDS011;21561;55.654;37.592;2022-07-11T08:09:26;13.95;;;5.60;;
35442;SDS011;21561;55.654;37.592;2022-07-11T08:11:53;17.15;;;6.22;;
35442;SDS011;21561;55.654;37.592;2022-07-11T08:14:20;16.55;;;5.93;;
35442;SDS011;21561;55.654;37.592;2022-07-11T08:16:48;22.42;;;6.20;;
35442;SDS011;21561;55.654;37.592;2022-07-11T08:19:15;16.20;;;5.82;;
35442;SDS011;21561;55.654;37.592;2022-07-11T08:21:42;16.23;;;6.25;;
35442;SDS011;21561;55.654;37.592;2022-07-11T08:24:09;16.38;;;5.97;;
35442;SDS011;21561;55.654;37.592;2022-07-11T08:26:36;12.68;;;5.80;;
35442;SDS011;21561;55.654;37.592;2022-07-11T08:29:03;21.83;;;6.40;;
35442;SDS011;21561;55.654;37.592;2022-07-11T08:31:31;13.70;;;6.03;;
35442;SDS011;21561;55.654;37.592;2022-07-11T08:33:59;12.70;;;6.07;;
35442;SDS011;21561;55.654;37.592;2022-07-11T08:36:27;14.20;;;5.90;;
35442;SDS011;21561;55.654;37.592;2022-07-11T08:38:58;15.95;;;6.38;;
35442;SDS011;21561;55.654;37.592;2022-07-11T08:41:25;15.75;;;5.70;;
35442;SDS011;21561;55.654;37.592;2022-07-11T08:43:52;14.90;;;5.97;;
35442;SDS011;21561;55.654;37.592;2022-07-11T08:46:20;13.20;;;5.78;;
35442;SDS011;21561;55.654;37.592;2022-07-11T08:48:47;17.42;;;5.50;;
35442;SDS011;21561;55.654;37.592;2022-07-11T08:51:16;18.00;;;6.00;;
35442;SDS011;21561;55.654;37.592;2022-07-11T08:53:43;14.02;;;5.50;;
35442;SDS011;21561;55.654;37.592;2022-07-11T08:56:12;19.15;;;6.15;;
35442;SDS011;21561;55.654;37.592;2022-07-11T08:58:45;16.42;;;6.65;;
35442;SDS011;21561;55.654;37.592;2022-07-11T09:01:21;18.20;;;6.40;;
35442;SDS011;21561;55.654;37.592;2022-07-11T09:04:00;18.30;;;6.50;;
35442;SDS011;21561;55.654;37.592;2022-07-11T09:06:28;16.48;;;6.45;;
35442;SDS011;21561;55.654;37.592;2022-07-11T09:08:59;17.27;;;6.10;;
35442;SDS011;21561;55.654;37.592;2022-07-11T09:11:28;19.88;;;6.30;;
35442;SDS011;21561;55.654;37.592;2022-07-11T09:14:25;14.82;;;5.97;;
35442;SDS011;21561;55.654;37.592;2022-07-11T09:16:58;13.02;;;5.78;;
35442;SDS011;21561;55.654;37.592;2022-07-11T09:19:28;13.23;;;6.32;;
35442;SDS011;21561;55.654;37.592;2022-07-11T09:22:30;18.52;;;6.47;;
35442;SDS011;21561;55.654;37.592;2022-07-11T09:25:09;14.73;;;5.78;;
35442;SDS011;21561;55.654;37.592;2022-07-11T09:27:59;14.20;;;6.45;;
35442;SDS011;21561;55.654;37.592;2022-07-11T09:33:06;16.70;;;6.88;;
35442;SDS011;21561;55.654;37.592;2022-07-11T09:35:39;14.80;;;6.28;;
35442;SDS011;21561;55.654;37.592;2022-07-11T09:38:09;20.70;;;6.45;;
35442;SDS011;21561;55.654;37.592;2022-07-11T09:40:37;13.05;;;6.20;;
35442;SDS011;21561;55.654;37.592;2022-07-11T09:43:08;18.33;;;5.90;;
35442;SDS011;21561;55.654;37.592;2022-07-11T09:45:35;13.43;;;5.80;;
35442;SDS011;21561;55.654;37.592;2022-07-11T09:48:10;13.73;;;5.70;;
35442;SDS011;21561;55.654;37.592;2022-07-11T09:50:38;14.88;;;5.90;;
35442;SDS011;21561;55.654;37.592;2022-07-11T09:53:07;17.95;;;6.60;;
35442;SDS011;21561;55.654;37.592;2022-07-11T09:55:44;16.90;;;6.28;;
35442;SDS011;21561;55.654;37.592;2022-07-11T09:58:17;16.75;;;6.40;;
35442;SDS011;21561;55.654;37.592;2022-07-11T10:00:44;16.58;;;5.90;;
35442;SDS011;21561;55.654;37.592;2022-07-11T10:03:12;16.15;;;5.80;;
35442;SDS011;21561;55.654;37.592;2022-07-11T10:05:59;14.45;;;5.03;;
35442;SDS011;21561;55.654;37.592;2022-07-11T10:08:27;11.48;;;5.00;;
35442;SDS011;21561;55.654;37.592;2022-07-11T10:10:53;16.17;;;5.72;;
35442;SDS011;21561;55.654;37.592;2022-07-11T10:13:21;16.23;;;4.93;;
35442;SDS011;21561;55.654;37.592;2022-07-11T10:15:49;11.35;;;4.95;;
35442;SDS011;21561;55.654;37.592;2022-07-11T10:18:31;11.38;;;4.90;;
35442;SDS011;21561;55.654;37.592;2022-07-11T10:21:12;13.05;;;4.50;;
35442;SDS011;21561;55.654;37.592;2022-07-11T10:29:26;13.10;;;4.80;;
35442;SDS011;21561;55.654;37.592;2022-07-11T10:32:07;13.70;;;5.00;;
35442;SDS011;21561;55.654;37.592;2022-07-11T10:34:39;10.57;;;4.90;;
35442;SDS011;21561;55.654;37.592;2022-07-11T10:37:07;14.55;;;5.25;;
35442;SDS011;21561;55.654;37.592;2022-07-11T10:39:35;14.05;;;5.20;;
35442;SDS011;21561;55.654;37.592;2022-07-11T10:42:03;14.35;;;4.95;;
35442;SDS011;21561;55.654;37.592;2022-07-11T10:44:48;11.82;;;5.40;;
35442;SDS011;21561;55.654;37.592;2022-07-11T10:50:34;15.32;;;5.10;;
35442;SDS011;21561;55.654;37.592;2022-07-11T10:53:08;14.40;;;5.03;;
35442;SDS011;21561;55.654;37.592;2022-07-11T10:55:46;11.77;;;5.13;;
35442;SDS011;21561;55.654;37.592;2022-07-11T10:58:31;15.88;;;5.00;;
35442;SDS011;21561;55.654;37.592;2022-07-11T11:01:08;13.88;;;5.10;;
35442;SDS011;21561;55.654;37.592;2022-07-11T11:03:37;13.55;;;5.13;;
35442;SDS011;21561;55.654;37.592;2022-07-11T11:06:08;17.48;;;5.38;;
35442;SDS011;21561;55.654;37.592;2022-07-11T11:16:52;11.95;;;4.97;;
35442;SDS011;21561;55.654;37.592;2022-07-11T11:22:21;15.20;;;4.90;;
35442;SDS011;21561;55.654;37.592;2022-07-11T11:24:50;14.60;;;4.80;;
35442;SDS011;21561;55.654;37.592;2022-07-11T11:27:39;13.98;;;5.13;;
35442;SDS011;21561;55.654;37.592;2022-07-11T11:30:28;12.90;;;5.47;;
35442;SDS011;21561;55.654;37.592;2022-07-11T11:32:56;12.85;;;4.90;;
35442;SDS011;21561;55.654;37.592;2022-07-11T11:35:22;12.38;;;5.20;;
35442;SDS011;21561;55.654;37.592;2022-07-11T11:37:57;17.23;;;5.35;;
35442;SDS011;21561;55.654;37.592;2022-07-11T11:40:24;14.77;;;5.00;;
35442;SDS011;21561;55.654;37.592;2022-07-11T11:42:51;12.27;;;4.80;;
35442;SDS011;21561;55.654;37.592;2022-07-11T11:45:18;13.38;;;5.13;;
35442;SDS011;21561;55.654;37.592;2022-07-11T11:47:48;13.18;;;5.15;;
35442;SDS011;21561;55.654;37.592;2022-07-11T11:50:16;13.27;;;5.15;;
35442;SDS011;21561;55.654;37.592;2022-07-11T11:52:44;15.30;;;5.30;;
35442;SDS011;21561;55.654;37.592;2022-07-11T11:55:11;11.75;;;5.10;;
35442;SDS011;21561;55.654;37.592;2022-07-11T11:57:38;16.33;;;5.03;;
35442;SDS011;21561;55.654;37.592;2022-07-11T12:00:19;16.88;;;5.50;;
35442;SDS011;21561;55.654;37.592;2022-07-11T12:03:06;20.83;;;6.10;;
35442;SDS011;21561;55.654;37.592;2022-07-11T12:05:36;16.60;;;5.50;;
35442;SDS011;21561;55.654;37.592;2022-07-11T12:08:03;16.10;;;5.78;;
35442;SDS011;21561;55.654;37.592;2022-07-11T12:10:30;17.00;;;5.18;;
35442;SDS011;21561;55.654;37.592;2022-07-11T12:12:59;19.27;;;5.13;;
35442;SDS011;21561;55.654;37.592;2022-07-11T12:15:32;17.45;;;4.60;;
35442;SDS011;21561;55.654;37.592;2022-07-11T12:18:20;18.50;;;4.97;;
35442;SDS011;21561;55.654;37.592;2022-07-11T12:20:47;17.38;;;4.88;;
35442;SDS011;21561;55.654;37.592;2022-07-11T12:23:17;16.48;;;5.15;;
35442;SDS011;21561;55.654;37.592;2022-07-11T12:25:50;15.30;;;4.47;;
35442;SDS011;21561;55.654;37.592;2022-07-11T12:28:19;17.00;;;4.82;;
35442;SDS011;21561;55.654;37.592;2022-07-11T12:30:53;16.83;;;5.07;;
35442;SDS011;21561;55.654;37.592;2022-07-11T12:33:21;17.83;;;5.15;;
35442;SDS011;21561;55.654;37.592;2022-07-11T12:35:54;16.92;;;4.97;;
35442;SDS011;21561;55.654;37.592;2022-07-11T12:38:25;21.10;;;5.15;;
35442;SDS011;21561;55.654;37.592;2022-07-11T12:41:12;20.35;;;5.72;;
35442;SDS011;21561;55.654;37.592;2022-07-11T12:43:40;16.58;;;4.80;;
35442;SDS011;21561;55.654;37.592;2022-07-11T12:46:29;13.57;;;4.90;;
35442;SDS011;21561;55.654;37.592;2022-07-11T12:48:59;21.25;;;5.38;;
35442;SDS011;21561;55.654;37.592;2022-07-11T12:51:31;19.80;;;5.43;;
35442;SDS011;21561;55.654;37.592;2022-07-11T12:54:02;21.63;;;5.38;;
35442;SDS011;21561;55.654;37.592;2022-07-11T12:56:54;21.38;;;4.82;;
35442;SDS011;21561;55.654;37.592;2022-07-11T12:59:24;20.48;;;4.80;;
35442;SDS011;21561;55.654;37.592;2022-07-11T13:10:05;19.48;;;4.82;;
35442;SDS011;21561;55.654;37.592;2022-07-11T13:12:33;15.68;;;4.82;;
35442;SDS011;21561;55.654;37.592;2022-07-11T13:15:00;22.23;;;5.10;;
35442;SDS011;21561;55.654;37.592;2022-07-11T13:17:36;26.30;;;4.93;;
35442;SDS011;21561;55.654;37.592;2022-07-11T13:20:08;17.70;;;4.80;;
35442;SDS011;21561;55.654;37.592;2022-07-11T13:22:42;21.33;;;4.72;;
35442;SDS011;21561;55.654;37.592;2022-07-11T13:25:12;18.67;;;5.50;;
35442;SDS011;21561;55.654;37.592;2022-07-11T13:27:43;17.33;;;4.68;;
35442;SDS011;21561;55.654;37.592;2022-07-11T13:30:13;15.45;;;4.70;;
35442;SDS011;21561;55.654;37.592;2022-07-11T13:32:43;15.73;;;4.60;;
35442;SDS011;21561;55.654;37.592;2022-07-11T13:35:11;18.38;;;4.80;;
35442;SDS011;21561;55.654;37.592;2022-07-11T13:37:42;22.73;;;5.05;;
35442;SDS011;21561;55.654;37.592;2022-07-11T13:40:13;17.98;;;5.00;;
35442;SDS011;21561;55.654;37.592;2022-07-11T13:42:42;19.23;;;5.47;;
35442;SDS011;21561;55.654;37.592;2022-07-11T13:45:13;17.05;;;4.63;;
35442;SDS011;21561;55.654;37.592;2022-07-11T13:47:40;19.13;;;4.93;;
35442;SDS011;21561;55.654;37.592;2022-07-11T13:50:08;16.83;;;4.90;;
35442;SDS011;21561;55.654;37.592;2022-07-11T13:52:36;17.83;;;4.90;;
35442;SDS011;21561;55.654;37.592;2022-07-11T13:55:03;14.93;;;4.93;;
35442;SDS011;21561;55.654;37.592;2022-07-11T13:57:30;18.25;;;4.90;;
35442;SDS011;21561;55.654;37.592;2022-07-11T13:59:58;21.45;;;4.90;;
35442;SDS011;21561;55.654;37.592;2022-07-11T14:02:25;13.63;;;4.65;;
35442;SDS011;21561;55.654;37.592;2022-07-11T14:04:52;17.85;;;5.20;;
35442;SDS011;21561;55.654;37.592;2022-07-11T14:07:19;20.33;;;5.07;;
35442;SDS011;21561;55.654;37.592;2022-07-11T14:09:47;23.23;;;5.03;;
35442;SDS011;21561;55.654;37.592;2022-07-11T14:12:14;17.42;;;4.50;;
35442;SDS011;21561;55.654;37.592;2022-07-11T14:14:41;14.15;;;4.68;;
35442;SDS011;21561;55.654;37.592;2022-07-11T14:17:08;18.42;;;4.88;;
35442;SDS011;21561;55.654;37.592;2022-07-11T14:19:35;17.80;;;4.80;;
35442;SDS011;21561;55.654;37.592;2022-07-11T14:22:05;14.23;;;4.15;;
35442;SDS011;21561;55.654;37.592;2022-07-11T14:24:33;17.58;;;4.50;;
35442;SDS011;21561;55.654;37.592;2022-07-11T14:27:01;16.65;;;4.53;;
35442;SDS011;21561;55.654;37.592;2022-07-11T14:29:29;43.00;;;4.72;;
35442;SDS011;21561;55.654;37.592;2022-07-11T14:31:57;13.30;;;4.47;;
35442;SDS011;21561;55.654;37.592;2022-07-11T14:34:24;18.83;;;4.55;;
35442;SDS011;21561;55.654;37.592;2022-07-11T14:36:52;15.75;;;4.53;;
35442;SDS011;21561;55.654;37.592;2022-07-11T14:39:19;16.83;;;4.63;;
35442;SDS011;21561;55.654;37.592;2022-07-11T14:41:46;16.48;;;4.50;;
35442;SDS011;21561;55.654;37.592;2022-07-11T14:44:13;18.33;;;4.45;;
35442;SDS011;21561;55.654;37.592;2022-07-11T14:46:41;16.35;;;4.63;;
35442;SDS011;21561;55.654;37.592;2022-07-11T14:49:13;21.27;;;4.68;;
35442;SDS011;21561;55.654;37.592;2022-07-11T14:51:40;19.73;;;5.05;;
35442;SDS011;21561;55.654;37.592;2022-07-11T14:54:23;17.35;;;4.65;;
35442;SDS011;21561;55.654;37.592;2022-07-11T14:56:51;15.43;;;4.68;;
35442;SDS011;21561;55.654;37.592;2022-07-11T14:59:18;13.13;;;4.28;;
35442;SDS011;21561;55.654;37.592;2022-07-11T15:01:45;16.33;;;4.90;;
35442;SDS011;21561;55.654;37.592;2022-07-11T15:04:12;21.42;;;4.60;;
35442;SDS011;21561;55.654;37.592;2022-07-11T15:06:39;19.80;;;4.70;;